Flight Track Log - Related Links

Times and Time Zones

All times are in EDT time to prevent confusion due to time zone crossing. See the SWA3587 flight status page for this flight to view local times or setup timezone preferences in your user account.

Time Position Orientation Groundspeed Altitude Reporting Facility
EDT Latitude Longitude Course Direction KTS MPH feet Rate Location/Type
Tue 07:23:26 AM 39.8667 -75.2833 260° West 159 183 800  Level Philadelphia TRACON
Tue 07:25:08 AM 39.8519 -75.3947 260° West 204 235 4,800 2,630 Climbing New York Center
Tue 07:26:08 AM 39.8553 -75.4708 273° West 234 269 7,900 2,650 Climbing New York Center
Tue 07:27:08 AM 39.8828 -75.5644 291° West 245 282 10,100 1,200 Climbing New York Center
Tue 07:28:08 AM 39.9158 -75.6697 292° West 288 331 10,300 1,600 Climbing New York Center
Tue 07:29:08 AM 39.8925 -75.7817 255° West 302 348 13,300 2,550 Climbing New York Center
Tue 07:30:08 AM 39.8386 -75.8669 231° Southwest 308 354 15,400 2,100 Climbing New York Center
Tue 07:31:08 AM 39.7789 -75.9492 227° Southwest 313 360 17,500 2,300 Climbing New York Center
Tue 07:32:08 AM 39.7231 -76.0342 230° Southwest 333 383 20,000 2,311 Climbing New York Center
Tue 07:33:10 AM 39.6586 -76.1183 225° Southwest 333 383 22,200 2,050 Climbing New York Center
Tue 07:34:08 AM 39.5983 -76.2053 228° Southwest 333 383 24,100 1,780 Climbing New York Center
Tue 07:35:08 AM 39.5272 -76.3022 226° Southwest 333 383 25,700 2,132 Climbing New York Center
Tue 07:36:09 AM 39.4797 -76.3658 226° Southwest 328 377 28,400 2,331 Climbing Washington Center
Tue 07:37:09 AM 39.4250 -76.4458 228° Southwest 315 362 30,400 1,678 Climbing Washington Center
Tue 07:38:07 AM 39.3683 -76.5339 230° Southwest 303 349 31,700 1,311 Climbing Washington Center
Tue 07:39:08 AM 39.3425 -76.6300 251° West 289 333 33,000 645 Climbing Washington Center
Tue 07:40:08 AM 39.3394 -76.7375 268° West 284 327 33,000 454 Level Washington Center
Tue 07:41:07 AM 39.3072 -76.8281 245° Southwest 289 333 33,900 1,059 Climbing Washington Center
Tue 07:42:07 AM 39.2564 -76.8997 228° Southwest 273 314 35,100 1,041 Climbing Washington Center
Tue 07:43:08 AM 39.1975 -76.9628 220° Southwest 273 314 36,000 443 Climbing Washington Center
Tue 07:44:09 AM 39.1361 -77.0233 217° Southwest 279 321 36,000  Level Washington Center
Tue 07:45:07 AM 39.0750 -77.0861 219° Southwest 284 327 36,000  Level Washington Center
Tue 07:46:08 AM 39.0158 -77.1464 218° Southwest 275 316 36,000  Level Washington Center
Tue 07:47:08 AM 38.9547 -77.2067 217° Southwest 280 322 36,000  Level Washington Center
Tue 07:48:06 AM 38.8933 -77.2719 220° Southwest 280 322 36,000  Level Washington Center
Tue 07:49:07 AM 38.8319 -77.3344 218° Southwest 280 322 36,000  Level Washington Center
Tue 07:50:08 AM 38.7706 -77.3942 217° Southwest 280 322 36,000  Level Washington Center
Tue 07:51:08 AM 38.7092 -77.4567 218° Southwest 280 322 36,000  Level Washington Center
Tue 07:52:09 AM 38.6606 -77.5058 218° Southwest 280 322 36,000  Level Washington Center
Tue 07:53:09 AM 38.5928 -77.5731 218° Southwest 280 322 36,000  Level Washington Center
Tue 07:54:07 AM 38.5333 -77.6353 219° Southwest 280 322 36,000  Level Washington Center
Tue 07:55:08 AM 38.4739 -77.6972 219° Southwest 280 322 36,000  Level Washington Center
Tue 07:56:09 AM 38.4164 -77.7567 219° Southwest 280 322 36,000  Level Washington Center
Tue 07:57:08 AM 38.3614 -77.8081 216° Southwest 280 322 36,000  Level Washington Center
Tue 07:58:09 AM 38.2956 -77.8750 219° Southwest 280 322 36,000  Level Washington Center
Tue 07:59:07 AM 38.2317 -77.9389 218° Southwest 280 322 36,000  Level Washington Center
Tue 08:00:08 AM 38.1764 -77.9928 217° Southwest 280 322 36,000  Level Washington Center
Tue 08:01:08 AM 38.1106 -78.0567 217° Southwest 280 322 36,000  Level Washington Center
Tue 08:02:08 AM 38.0550 -78.1103 217° Southwest 280 322 36,000  Level Washington Center
Tue 08:03:09 AM 37.9889 -78.1764 218° Southwest 280 322 36,000  Level Washington Center
Tue 08:04:09 AM 37.9400 -78.2300 221° Southwest 275 316 36,000  Level Washington Center
Tue 08:05:07 AM 37.8739 -78.2908 216° Southwest 275 316 36,000  Level Washington Center
Tue 08:06:09 AM 37.8142 -78.3467 216° Southwest 275 316 36,000  Level Washington Center
Tue 08:07:09 AM 37.7544 -78.4047 218° Southwest 280 322 36,000  Level Washington Center
Tue 08:08:09 AM 37.6947 -78.4603 216° Southwest 280 322 36,000  Level Washington Center
Tue 08:09:07 AM 37.6328 -78.5158 215° Southwest 280 322 36,000  Level Washington Center
Tue 08:10:08 AM 37.5794 -78.5686 218° Southwest 280 322 36,000  Level Washington Center
Tue 08:11:08 AM 37.5197 -78.6239 216° Southwest 280 322 36,000  Level Washington Center
Tue 08:12:09 AM 37.4578 -78.6817 217° Southwest 280 322 36,000  Level Washington Center
Tue 08:13:07 AM 37.3958 -78.7392 216° Southwest 280 322 36,000  Level Washington Center
Tue 08:14:08 AM 37.3272 -78.8044 217° Southwest 280 322 36,000  Level Washington Center
Tue 08:15:09 AM 37.2672 -78.8592 216° Southwest 280 322 36,000  Level Washington Center
Tue 08:16:09 AM 37.2031 -78.9192 217° Southwest 280 322 36,000  Level Washington Center
Tue 08:17:07 AM 37.1411 -78.9739 215° Southwest 280 322 36,000  Level Washington Center
Tue 08:18:08 AM 37.0789 -79.0336 217° Southwest 280 322 36,000  Level Washington Center
Tue 08:19:08 AM 37.0233 -79.0831 215° Southwest 280 322 36,000  Level Washington Center
Tue 08:20:09 AM 36.9631 -79.1400 217° Southwest 280 322 36,000  Level Washington Center
Tue 08:21:09 AM 36.9008 -79.1997 218° Southwest 280 322 36,000  Level Washington Center
Tue 08:22:07 AM 36.8386 -79.2564 216° Southwest 280 322 36,000  Level Washington Center
Tue 08:23:08 AM 36.7764 -79.3106 215° Southwest 280 322 36,000  Level Washington Center
Tue 08:24:08 AM 36.7075 -79.3772 218° Southwest 280 322 36,000  Level Washington Center
Tue 08:25:07 AM 36.6453 -79.4336 216° Southwest 280 322 36,000  Level Washington Center
Tue 08:26:07 AM 36.5831 -79.4900 216° Southwest 280 322 36,000  Level Washington Center
Tue 08:27:09 AM 36.5183 -79.5489 216° Southwest 280 322 36,000  Level Washington Center
Tue 08:28:53 AM 36.4133 -79.6400 215° Southwest 288 331 36,000  Level Atlanta Center
Tue 08:29:53 AM 36.3486 -79.6978 216° Southwest 288 331 36,000  Level Atlanta Center
Tue 08:30:53 AM 36.2881 -79.7553 217° Southwest 288 331 36,000  Level Atlanta Center
Tue 08:31:53 AM 36.2233 -79.8128 216° Southwest 283 326 36,000  Level Atlanta Center
Tue 08:32:53 AM 36.1525 -79.8781 217° Southwest 283 326 36,000  Level Atlanta Center
Tue 08:33:53 AM 36.0897 -79.9328 215° Southwest 283 326 36,000  Level Atlanta Center
Tue 08:34:53 AM 36.0206 -79.9850 211° Southwest 283 326 36,000  Level Atlanta Center
Tue 08:35:53 AM 35.9467 -80.0244 203° Southwest 288 331 36,000  Level Atlanta Center
Tue 08:36:53 AM 35.8689 -80.0642 202° Southwest 294 338 36,000 50 Level Atlanta Center
Tue 08:37:53 AM 35.7969 -80.1036 204° Southwest 294 338 36,100  Climbing Atlanta Center
Tue 08:38:53 AM 35.7272 -80.1403 203° Southwest 294 338 36,000 150 Descending Atlanta Center
Tue 08:39:53 AM 35.6431 -80.1800 201° Southwest 294 338 36,400  Climbing Atlanta Center
Tue 08:40:53 AM 35.5772 -80.2111 201° Southwest 288 331 36,000 -200 Descending Atlanta Center
Tue 08:41:53 AM 35.5011 -80.2506 203° Southwest 288 331 36,000  Level Atlanta Center
Tue 08:42:53 AM 35.4253 -80.2872 202° Southwest 293 337 36,000  Level Atlanta Center
Tue 08:43:53 AM 35.3511 -80.3261 203° Southwest 293 337 36,000  Level Atlanta Center
Tue 08:44:53 AM 35.2731 -80.3628 201° Southwest 299 344 36,000  Level Atlanta Center
Tue 08:45:53 AM 35.1992 -80.4017 203° Southwest 299 344 36,000  Level Atlanta Center
Tue 08:47:38 AM 35.0628 -80.4683 202° Southwest 288 331 36,000  Level Jacksonville Center
Tue 08:48:38 AM 34.9883 -80.5083 204° Southwest 293 337 36,000  Level Jacksonville Center
Tue 08:49:38 AM 34.9119 -80.5433 201° Southwest 293 337 36,000  Level Jacksonville Center
Tue 08:50:38 AM 34.8333 -80.5808 201° Southwest 293 337 36,000  Level Jacksonville Center
Tue 08:51:38 AM 34.7611 -80.6208 204° Southwest 293 337 36,000  Level Jacksonville Center
Tue 08:52:38 AM 34.6844 -80.6581 202° Southwest 293 337 36,000  Level Jacksonville Center
Tue 08:53:38 AM 34.6058 -80.6906 199° South 298 343 36,000  Level Jacksonville Center
Tue 08:54:38 AM 34.5272 -80.7278 201° Southwest 310 357 36,000  Level Jacksonville Center
Tue 08:55:38 AM 34.4467 -80.7775 207° Southwest 310 357 36,000  Level Jacksonville Center
Tue 08:56:38 AM 34.3681 -80.8172 203° Southwest 275 316 36,000  Level Jacksonville Center
Tue 08:57:38 AM 34.2894 -80.8517 200° South 314 361 36,000  Level Jacksonville Center
Tue 08:58:38 AM 34.2169 -80.8861 201° Southwest 302 348 36,000  Level Jacksonville Center
Tue 08:59:38 AM 34.1403 -80.9206 200° South 302 348 36,000  Level Jacksonville Center
Tue 09:00:38 AM 34.0594 -80.9600 202° Southwest 307 353 36,000  Level Jacksonville Center
Tue 09:01:38 AM 33.9786 -80.9967 201° Southwest 307 353 36,000  Level Jacksonville Center
Tue 09:02:38 AM 33.8958 -81.0361 202° Southwest 312 359 36,000  Level Jacksonville Center
Tue 09:03:38 AM 33.8169 -81.0728 201° Southwest 312 359 36,000  Level Jacksonville Center
Tue 09:04:38 AM 33.7383 -81.1144 204° Southwest 312 359 36,000  Level Jacksonville Center
Tue 09:05:38 AM 33.6575 -81.1558 203° Southwest 312 359 36,000  Level Jacksonville Center
Tue 09:06:38 AM 33.5767 -81.1972 203° Southwest 312 359 36,000  Level Jacksonville Center
Tue 09:07:38 AM 33.4978 -81.2364 202° Southwest 312 359 36,000  Level Jacksonville Center
Tue 09:08:38 AM 33.4169 -81.2750 202° Southwest 312 359 36,000  Level Jacksonville Center
Tue 09:09:38 AM 33.3361 -81.3139 202° Southwest 312 359 36,000  Level Jacksonville Center
Tue 09:10:38 AM 33.2447 -81.3578 202° Southwest 312 359 36,000  Level Jacksonville Center
Tue 09:11:38 AM 33.1619 -81.3989 203° Southwest 312 359 36,000  Level Jacksonville Center
Tue 09:12:38 AM 33.0831 -81.4372 202° Southwest 312 359 36,000  Level Jacksonville Center
Tue 09:13:38 AM 33.0000 -81.4783 203° Southwest 312 359 36,000  Level Jacksonville Center
Tue 09:14:38 AM 32.9189 -81.5167 202° Southwest 312 359 36,000  Level Jacksonville Center
Tue 09:15:38 AM 32.8358 -81.5575 202° Southwest 317 365 36,000  Level Jacksonville Center
Tue 09:16:38 AM 32.7528 -81.5958 201° Southwest 317 365 36,000  Level Jacksonville Center
Tue 09:17:38 AM 32.6800 -81.6339 204° Southwest 317 365 36,000  Level Jacksonville Center
Tue 09:18:38 AM 32.5886 -81.6769 202° Southwest 317 365 36,000  Level Jacksonville Center
Tue 09:19:38 AM 32.5056 -81.7150 201° Southwest 323 372 36,000  Level Jacksonville Center
Tue 09:20:38 AM 32.4203 -81.7581 203° Southwest 328 377 36,000  Level Jacksonville Center
Tue 09:21:38 AM 32.3331 -81.7911 198° South 333 383 36,000  Level Jacksonville Center
Tue 09:22:38 AM 32.2494 -81.8044 188° South 338 389 36,000 200 Level Jacksonville Center
Tue 09:23:38 AM 32.1433 -81.8203 187° South 351 404 36,400 500 Climbing Jacksonville Center
Tue 09:24:38 AM 32.0514 -81.8361 188° South 346 398 37,000 300 Climbing Jacksonville Center
Tue 09:25:38 AM 31.9661 -81.8494 188° South 351 404 37,000  Level Jacksonville Center
Tue 09:26:38 AM 31.8617 -81.8653 187° South 351 404 37,000  Level Jacksonville Center
Tue 09:27:38 AM 31.7761 -81.8808 189° South 351 404 37,000  Level Jacksonville Center
Tue 09:28:38 AM 31.6719 -81.8967 187° South 346 398 37,000  Level Jacksonville Center
Tue 09:29:38 AM 31.5761 -81.9122 188° South 352 405 37,000  Level Jacksonville Center
Tue 09:30:38 AM 31.4906 -81.9253 187° South 355 409 37,000  Level Jacksonville Center
Tue 09:31:38 AM 31.3864 -81.9436 189° South 351 404 37,000  Level Jacksonville Center
Tue 09:32:38 AM 31.2883 -81.9592 188° South 351 404 37,000 -250 Level Jacksonville Center
Tue 09:33:38 AM 31.1944 -81.9744 188° South 351 404 36,500 -500 Descending Jacksonville Center
Tue 09:34:38 AM 31.0986 -81.9900 188° South 351 404 36,000 -250 Descending Jacksonville Center
Tue 09:35:38 AM 31.0025 -82.0056 188° South 351 404 36,000  Level Jacksonville Center
Tue 09:36:38 AM 30.9044 -82.0233 189° South 351 404 36,000  Level Jacksonville Center
Tue 09:37:38 AM 30.8106 -82.0364 187° South 351 404 36,000  Level Jacksonville Center
Tue 09:38:38 AM 30.7128 -82.0517 188° South 351 404 36,000  Level Jacksonville Center
Tue 09:39:39 AM 30.6167 -82.0669 188° South 351 404 36,000  Level Jacksonville Center
Tue 09:40:38 AM 30.5333 -82.0750 185° South 351 404 36,000  Level Jacksonville Center
Tue 09:41:38 AM 30.4353 -82.0928 189° South 351 404 36,000  Level Jacksonville Center
Tue 09:42:38 AM 30.3372 -82.1081 188° South 351 404 36,000  Level Jacksonville Center
Tue 09:43:38 AM 30.2411 -82.1208 187° South 351 404 36,000  Level Jacksonville Center
Tue 09:44:38 AM 30.1411 -82.1239 182° South 351 404 36,000  Level Jacksonville Center
Tue 09:45:38 AM 30.0364 -82.1031 170° South 364 419 36,000  Level Jacksonville Center
Tue 09:46:38 AM 29.9319 -82.0850 171° South 375 432 36,000  Level Jacksonville Center
Tue 09:47:38 AM 29.8294 -82.0642 170° South 380 437 36,000  Level Jacksonville Center
Tue 09:48:38 AM 29.7272 -82.0411 169° South 380 437 36,000 -450 Level Jacksonville Center
Tue 09:49:38 AM 29.6225 -82.0206 170° South 375 432 35,100 -500 Descending Jacksonville Center
Tue 09:50:38 AM 29.5222 -82.0000 170° South 375 432 35,000 -50 Descending Jacksonville Center
Tue 09:51:38 AM 29.4197 -81.9794 170° South 375 432 35,000  Level Jacksonville Center
Tue 09:52:38 AM 29.3153 -81.9614 171° South 375 432 35,000  Level Jacksonville Center
Tue 09:53:38 AM 29.2086 -81.9361 168° South 375 432 35,000  Level Jacksonville Center
Tue 09:54:38 AM 29.1019 -81.9158 171° South 382 440 35,000  Level Jacksonville Center
Tue 09:55:38 AM 28.9956 -81.8956 171° South 388 447 35,000 -899 Level Jacksonville Center
Tue 09:58:05 AM 28.7256 -81.8428 170° South 404 465 31,900 -1,904 Descending Miami Center
Tue 09:59:06 AM 28.6108 -81.8200 170° South 413 475 28,400 -2,439 Descending Miami Center
Tue 10:00:08 AM 28.4958 -81.7969 170° South 418 481 26,900 -677 Descending Miami Center
Tue 10:01:10 AM 28.3811 -81.7703 168° South 418 481 27,000 -49 Climbing Miami Center
Tue 10:02:11 AM 28.2550 -81.7436 169° South 436 502 26,800 -683 Descending Miami Center
Tue 10:03:13 AM 28.1372 -81.7194 170° South 435 501 25,600 -1,171 Descending Miami Center
Tue 10:04:14 AM 27.9994 -81.6892 169° South 426 490 24,400 -1,073 Descending Miami Center
Tue 10:05:16 AM 27.8828 -81.6647 170° South 426 490 23,400 -919 Descending Miami Center
Tue 10:06:18 AM 27.7556 -81.6386 170° South 428 493 22,500 -976 Descending Miami Center
Tue 10:07:19 AM 27.6306 -81.6128 170° South 435 501 21,400 -1,073 Descending Miami Center
Tue 10:08:21 AM 27.5089 -81.5864 169° South 427 491 20,300 -1,415 Descending Miami Center
Tue 10:09:22 AM 27.4078 -81.5636 169° South 388 447 18,500 -2,195 Descending Miami Center
Tue 10:10:24 AM 27.3250 -81.5475 170° South 337 388 15,800 -2,177 Descending Miami Center
Tue 10:11:26 AM 27.2289 -81.5294 171° South 348 400 14,000 -2,032 Descending Miami Center
Tue 10:12:28 AM 27.1153 -81.5039 169° South 348 400 11,600 -1,951 Descending Miami Center
Tue 10:13:29 AM 27.0256 -81.4853 170° South 330 380 10,000 -780 Descending Miami Center
Tue 10:14:31 AM 26.9472 -81.4508 159° South 283 326 10,000 -871 Level Miami Center
Tue 10:15:33 AM 26.8750 -81.4544 183° South 268 308 8,200 -1,512 Descending Miami Center
Tue 10:16:34 AM 26.8022 -81.4717 192° South 245 282 6,900 -1,561 Descending Miami Center
Tue 10:17:36 AM 26.7431 -81.5017 204° Southwest 238 274 5,000 -1,452 Descending Miami Center
Tue 10:18:38 AM 26.6906 -81.5478 218° Southwest 222 255 3,900 -823 Descending Miami Center
Tue 10:19:40 AM 26.6458 -81.5856 217° Southwest 205 236 3,300 -732 Descending Miami Center
Tue 10:20:41 AM 26.6167 -81.6300 234° Southwest 178 205 2,400 -927 Descending Miami Center
Tue 10:21:43 AM 26.5886 -81.6772 236° Southwest 173 199 1,400 -823 Descending Miami Center
Tue 10:22:45 AM 26.5669 -81.7089 233° Southwest 135 155 700 -677 Descending Miami Center
Tue 10:24:00 AM 26.5362 -81.7552 233° Southwest  Level Estimated
Tue 10:31:00 AM 26.5362 -81.7552 North  Level Estimated
Tue 10:32:00 AM 26.5362 -81.7552 North  Level Estimated

Login

Don't have an account? Register now (free) for customized features, flight alerts, and more!